createdAt,value
2022-08-07T00:02:41.101Z,14.30
2022-08-07T00:04:59.585Z,15.20
2022-08-07T00:07:27.367Z,14.40
2022-08-07T00:10:18.747Z,18.10
2022-08-07T00:12:57.908Z,14.85
2022-08-07T00:15:38.083Z,14.05
2022-08-07T00:18:19.513Z,13.95
2022-08-07T00:20:49.494Z,14.73
2022-08-07T00:23:17.089Z,14.85
2022-08-07T00:25:45.887Z,15.25
2022-08-07T00:28:22.034Z,14.63
2022-08-07T00:30:49.280Z,17.23
2022-08-07T00:33:16.305Z,13.85
2022-08-07T00:35:49.088Z,15.48
2022-08-07T00:38:16.438Z,17.92
2022-08-07T00:40:58.930Z,17.17
2022-08-07T00:44:00.252Z,15.90
2022-08-07T00:46:14.440Z,17.08
2022-08-07T00:48:42.219Z,16.42
2022-08-07T00:51:10.267Z,19.52
2022-08-07T00:53:38.538Z,18.95
2022-08-07T00:56:15.961Z,19.23
2022-08-07T00:58:46.575Z,20.67
2022-08-07T01:01:15.921Z,21.08
2022-08-07T01:03:56.694Z,21.38
2022-08-07T01:06:28.411Z,18.90
2022-08-07T01:08:58.288Z,17.80
2022-08-07T01:12:10.299Z,19.85
2022-08-07T01:14:15.525Z,17.67
2022-08-07T01:16:47.401Z,18.65
2022-08-07T01:19:18.759Z,20.02
2022-08-07T01:21:53.454Z,19.52
2022-08-07T01:24:25.682Z,18.48
2022-08-07T01:26:54.160Z,20.25
2022-08-07T01:29:31.450Z,17.25
2022-08-07T01:32:05.484Z,20.33
2022-08-07T01:34:33.302Z,17.17
2022-08-07T01:37:05.970Z,18.58
2022-08-07T01:39:40.886Z,17.23
2022-08-07T01:42:39.473Z,16.80
2022-08-07T01:45:22.716Z,17.17
2022-08-07T01:48:20.824Z,17.77
2022-08-07T01:50:47.062Z,16.90
2022-08-07T01:53:21.136Z,16.38
2022-08-07T01:55:57.714Z,17.13
2022-08-07T01:58:33.374Z,15.18
2022-08-07T02:01:25.046Z,17.88
2022-08-07T02:04:16.213Z,20.58
2022-08-07T02:06:47.914Z,17.25
2022-08-07T02:09:52.128Z,14.63
2022-08-07T02:12:29.207Z,18.55
2022-08-07T02:15:00.888Z,17.37
2022-08-07T02:17:49.450Z,14.88
2022-08-07T02:20:23.688Z,14.30
2022-08-07T02:22:59.746Z,15.75
2022-08-07T02:26:10.618Z,15.32
2022-08-07T02:28:24.438Z,16.30
2022-08-07T02:30:55.270Z,13.50
2022-08-07T02:33:25.434Z,13.80
2022-08-07T02:36:28.379Z,13.23
2022-08-07T02:38:58.397Z,14.38
2022-08-07T02:41:33.586Z,16.20
2022-08-07T02:44:05.630Z,13.77
2022-08-07T02:46:36.723Z,17.27
2022-08-07T02:49:05.619Z,13.48
2022-08-07T02:51:42.587Z,13.55
2022-08-07T02:54:19.997Z,12.40
2022-08-07T02:56:48.557Z,13.02
2022-08-07T02:59:24.193Z,12.75
2022-08-07T03:01:57.676Z,13.82
2022-08-07T03:04:30.379Z,12.43
2022-08-07T03:07:07.252Z,11.18
2022-08-07T03:09:41.858Z,14.52
2022-08-07T03:12:21.987Z,11.13
2022-08-07T03:14:52.251Z,11.10
2022-08-07T03:17:20.212Z,10.95
2022-08-07T03:19:55.154Z,11.77
2022-08-07T03:22:30.194Z,10.95
2022-08-07T03:24:59.971Z,11.88
2022-08-07T03:27:42.222Z,10.47
2022-08-07T03:30:17.936Z,12.38
2022-08-07T03:32:58.327Z,12.93
2022-08-07T03:35:43.569Z,11.93
2022-08-07T03:38:16.332Z,10.18
2022-08-07T03:40:57.375Z,11.00
2022-08-07T03:43:32.371Z,12.07
2022-08-07T03:46:02.983Z,10.15
2022-08-07T03:48:31.774Z,11.38
2022-08-07T03:51:00.522Z,10.93
2022-08-07T03:54:01.967Z,9.45
2022-08-07T03:56:33.545Z,9.02
2022-08-07T03:59:10.156Z,12.63
2022-08-07T04:01:45.350Z,8.38
2022-08-07T04:04:17.294Z,8.48
2022-08-07T04:06:46.506Z,8.82
2022-08-07T04:09:19.697Z,6.70
2022-08-07T04:12:20.914Z,6.90
2022-08-07T04:14:43.701Z,8.27
2022-08-07T04:17:20.243Z,6.90
2022-08-07T04:20:01.487Z,5.82
2022-08-07T04:22:33.398Z,7.30
2022-08-07T04:25:11.851Z,8.20
2022-08-07T04:27:44.221Z,5.32
2022-08-07T04:30:21.558Z,7.20
2022-08-07T04:33:14.045Z,5.37
2022-08-07T04:35:50.436Z,5.35
2022-08-07T04:38:19.311Z,4.95
2022-08-07T04:40:52.074Z,5.70
2022-08-07T04:44:12.364Z,3.95
2022-08-07T04:46:59.233Z,3.95
2022-08-07T04:49:57.353Z,4.03
2022-08-07T04:52:51.864Z,4.60
2022-08-07T04:58:16.493Z,6.20
2022-08-07T04:59:17.141Z,4.25
2022-08-07T05:01:55.761Z,7.88
2022-08-07T05:04:52.057Z,4.10
2022-08-07T05:07:36.811Z,5.03
2022-08-07T05:10:19.530Z,4.32
2022-08-07T05:14:44.794Z,7.40
2022-08-07T05:15:51.638Z,4.00
2022-08-07T05:18:30.686Z,4.00
2022-08-07T05:21:05.790Z,4.10
2022-08-07T05:23:42.033Z,4.28
2022-08-07T05:26:37.268Z,4.88
2022-08-07T05:29:10.122Z,4.00
2022-08-07T05:31:40.715Z,3.47
2022-08-07T05:34:26.201Z,7.35
2022-08-07T05:36:56.554Z,3.88
2022-08-07T05:40:13.390Z,5.95
2022-08-07T05:42:33.262Z,4.90
2022-08-07T05:45:14.358Z,3.65
2022-08-07T05:48:02.017Z,3.90
2022-08-07T05:50:34.258Z,3.67
2022-08-07T05:53:02.646Z,4.38
2022-08-07T05:56:03.213Z,4.30
2022-08-07T05:58:36.101Z,4.28
2022-08-07T06:01:10.490Z,4.53
2022-08-07T06:03:57.298Z,3.80
2022-08-07T06:06:32.290Z,4.30
2022-08-07T06:09:04.663Z,5.40
2022-08-07T06:11:34.475Z,4.03
2022-08-07T06:14:11.884Z,4.82
2022-08-07T06:16:45.799Z,4.20
2022-08-07T06:19:47.924Z,4.88
2022-08-07T06:22:16.402Z,4.63
2022-08-07T06:25:01.163Z,5.22
2022-08-07T06:28:00.499Z,5.88
2022-08-07T06:30:31.876Z,4.30
2022-08-07T06:33:09.720Z,5.13
2022-08-07T06:35:47.908Z,4.50
2022-08-07T06:38:31.149Z,5.68
2022-08-07T06:41:01.202Z,4.30
2022-08-07T06:43:39.130Z,4.28
2022-08-07T06:46:12.625Z,5.78
2022-08-07T06:48:42.040Z,5.00
2022-08-07T06:51:31.259Z,4.53
2022-08-07T06:55:29.920Z,5.05
2022-08-07T06:56:51.661Z,4.57
2022-08-07T07:00:13.246Z,4.35
2022-08-07T07:06:05.676Z,4.63
2022-08-07T07:08:18.618Z,3.90
2022-08-07T07:10:56.377Z,3.70
2022-08-07T07:13:55.424Z,3.85
2022-08-07T07:16:21.978Z,5.60
2022-08-07T07:18:55.821Z,3.55
2022-08-07T07:21:27.200Z,4.30
2022-08-07T07:24:12.569Z,7.78
2022-08-07T07:26:49.630Z,3.92
2022-08-07T07:29:40.185Z,5.85
2022-08-07T07:32:14.028Z,3.10
2022-08-07T07:34:48.660Z,4.25
2022-08-07T07:37:45.418Z,3.55
2022-08-07T07:40:10.156Z,4.10
2022-08-07T07:42:50.923Z,3.92
2022-08-07T07:46:38.487Z,3.97
2022-08-07T07:48:24.195Z,4.15
2022-08-07T07:51:07.962Z,3.45
2022-08-07T07:53:52.168Z,5.50
2022-08-07T07:56:30.079Z,4.75
2022-08-07T07:59:00.185Z,3.30
2022-08-07T08:02:01.964Z,3.45
2022-08-07T08:04:19.671Z,5.57
2022-08-07T08:06:53.784Z,4.88
2022-08-07T08:09:29.687Z,3.70
2022-08-07T08:12:02.487Z,3.78
2022-08-07T08:14:36.706Z,4.53
2022-08-07T08:17:32.483Z,4.32
2022-08-07T08:20:18.119Z,3.58
2022-08-07T08:25:57.937Z,4.47
2022-08-07T08:28:38.091Z,4.53
2022-08-07T08:31:08.505Z,4.70
2022-08-07T08:33:43.850Z,4.50
2022-08-07T08:36:17.894Z,3.50
2022-08-07T08:38:55.467Z,4.47
2022-08-07T08:41:58.466Z,4.93
2022-08-07T08:44:44.330Z,3.30
2022-08-07T08:47:52.165Z,3.63
2022-08-07T08:50:34.826Z,3.83
2022-08-07T08:53:30.193Z,3.35
2022-08-07T08:56:02.174Z,3.58
2022-08-07T08:58:57.092Z,4.00
2022-08-07T09:01:29.898Z,6.82
2022-08-07T09:04:18.803Z,3.75
2022-08-07T09:06:57.944Z,3.78
2022-08-07T09:09:41.177Z,3.80
2022-08-07T09:12:38.957Z,3.00
2022-08-07T09:16:25.154Z,5.28
2022-08-07T09:18:10.077Z,2.72
2022-08-07T09:21:13.779Z,3.00
2022-08-07T09:24:32.871Z,5.20
2022-08-07T09:27:32.320Z,2.85
2022-08-07T09:30:20.649Z,2.72
2022-08-07T09:33:41.231Z,4.57
2022-08-07T09:36:35.832Z,3.20
2022-08-07T09:39:53.987Z,2.97
2022-08-07T09:42:32.937Z,3.03
2022-08-07T09:46:28.684Z,3.63
2022-08-07T09:48:50.314Z,3.60
2022-08-07T09:52:10.209Z,4.18
2022-08-07T09:54:43.966Z,3.88
2022-08-07T09:57:50.034Z,4.78
2022-08-07T10:00:29.892Z,2.97
2022-08-07T10:04:03.270Z,3.92
2022-08-07T10:06:35.863Z,4.22
2022-08-07T10:09:59.222Z,2.40
2022-08-07T10:12:41.206Z,2.50
2022-08-07T10:15:29.993Z,2.80
2022-08-07T10:18:26.301Z,2.88
2022-08-07T10:21:50.859Z,2.72
2022-08-07T10:24:21.605Z,3.25
2022-08-07T10:27:10.394Z,3.45
2022-08-07T10:30:07.279Z,2.88
2022-08-07T10:33:06.995Z,3.95
2022-08-07T10:36:05.447Z,2.53
2022-08-07T10:41:51.816Z,2.67
2022-08-07T10:44:38.459Z,3.25
2022-08-07T10:47:50.612Z,2.97
2022-08-07T10:50:29.135Z,2.95
2022-08-07T10:53:09.681Z,4.93
2022-08-07T10:56:05.049Z,2.63
2022-08-07T10:58:46.092Z,2.47
2022-08-07T11:01:51.515Z,5.18
2022-08-07T11:04:48.227Z,2.65
2022-08-07T11:07:58.416Z,3.17
2022-08-07T11:10:34.733Z,2.35
2022-08-07T11:14:42.035Z,2.90
2022-08-07T11:16:08.041Z,2.70
2022-08-07T11:18:54.224Z,2.55
2022-08-07T11:21:41.039Z,2.70
2022-08-07T11:24:39.336Z,3.17
2022-08-07T11:28:01.858Z,2.92
2022-08-07T11:30:19.447Z,3.67
2022-08-07T11:33:16.846Z,3.97
2022-08-07T11:36:10.021Z,4.90
2022-08-07T11:38:52.370Z,2.63
2022-08-07T11:42:01.366Z,2.90
2022-08-07T11:44:57.948Z,2.95
2022-08-07T11:47:53.547Z,3.00
2022-08-07T11:51:01.761Z,2.95
2022-08-07T11:53:43.222Z,2.60
2022-08-07T11:56:52.269Z,2.90
2022-08-07T12:00:10.084Z,5.05
2022-08-07T12:02:34.005Z,2.50
2022-08-07T12:05:41.202Z,4.88
2022-08-07T12:08:26.091Z,3.05
2022-08-07T12:11:21.228Z,3.67
2022-08-07T12:14:01.550Z,3.55
2022-08-07T12:16:33.882Z,3.22
2022-08-07T12:19:35.526Z,3.60
2022-08-07T12:22:47.262Z,3.92
2022-08-07T12:26:05.799Z,4.70
2022-08-07T12:28:58.908Z,6.13
2022-08-07T12:32:02.266Z,2.72
2022-08-07T12:34:38.416Z,3.15
2022-08-07T12:37:08.582Z,2.40
2022-08-07T12:39:52.785Z,2.75
2022-08-07T12:42:27.989Z,2.50
2022-08-07T12:45:05.686Z,2.97
2022-08-07T12:47:46.379Z,4.63
2022-08-07T12:50:34.017Z,2.90
2022-08-07T12:54:36.477Z,3.78
2022-08-07T12:56:32.145Z,4.07
2022-08-07T12:59:01.286Z,2.65
2022-08-07T13:02:09.958Z,2.55
2022-08-07T13:05:01.541Z,3.00
2022-08-07T13:08:13.347Z,2.73
2022-08-07T13:10:51.980Z,3.20
2022-08-07T13:13:49.504Z,5.30
2022-08-07T13:16:54.815Z,2.83
2022-08-07T13:19:45.852Z,2.78
2022-08-07T13:22:32.303Z,2.47
2022-08-07T13:25:02.516Z,3.58
2022-08-07T13:28:12.371Z,4.07
2022-08-07T13:30:43.927Z,3.28
2022-08-07T13:34:31.449Z,3.40
2022-08-07T13:36:39.346Z,2.90
2022-08-07T13:40:32.944Z,2.63
2022-08-07T13:42:24.791Z,3.22
2022-08-07T13:44:55.518Z,2.45
2022-08-07T13:48:05.540Z,3.03
2022-08-07T13:50:34.722Z,3.28
2022-08-07T13:53:21.756Z,2.58
2022-08-07T13:55:54.636Z,4.07
2022-08-07T13:58:48.386Z,2.92
2022-08-07T14:01:26.230Z,2.20
2022-08-07T14:04:07.135Z,2.58
2022-08-07T14:06:38.366Z,3.42
2022-08-07T14:09:09.767Z,8.38
2022-08-07T14:11:53.639Z,5.70
2022-08-07T14:14:41.411Z,3.40
2022-08-07T14:17:31.935Z,5.27
2022-08-07T14:20:40.223Z,5.43
2022-08-07T14:23:08.528Z,3.55
2022-08-07T14:25:45.824Z,4.60
2022-08-07T14:28:16.772Z,3.42
2022-08-07T14:30:52.015Z,2.80
2022-08-07T14:33:22.471Z,3.60
2022-08-07T14:35:55.812Z,2.55
2022-08-07T14:38:31.196Z,2.53
2022-08-07T14:41:12.414Z,4.18
2022-08-07T14:43:57.699Z,10.27
2022-08-07T14:46:33.411Z,8.98
2022-08-07T14:49:56.233Z,3.42
2022-08-07T14:52:02.954Z,3.22
2022-08-07T14:57:24.936Z,2.83
2022-08-07T15:00:06.875Z,3.53
2022-08-07T15:02:37.327Z,2.65
2022-08-07T15:05:20.094Z,2.50
2022-08-07T15:07:51.826Z,2.30
2022-08-07T15:10:29.609Z,2.30
2022-08-07T15:13:05.635Z,2.30
2022-08-07T15:15:52.528Z,2.60
2022-08-07T15:18:40.229Z,3.05
2022-08-07T15:21:58.874Z,3.35
2022-08-07T15:27:24.894Z,2.80
2022-08-07T15:33:03.935Z,2.45
2022-08-07T15:41:23.731Z,2.90
2022-08-07T15:44:13.066Z,2.20
2022-08-07T15:46:45.906Z,2.10
2022-08-07T15:50:04.905Z,2.33
2022-08-07T15:52:29.562Z,2.67
2022-08-07T15:55:03.637Z,3.10
2022-08-07T15:57:47.693Z,2.53
2022-08-07T16:00:31.881Z,2.55
2022-08-07T16:03:04.038Z,2.80
2022-08-07T16:05:32.337Z,3.97
2022-08-07T16:08:33.333Z,2.55
2022-08-07T16:11:26.631Z,2.90
2022-08-07T16:14:03.099Z,2.75
2022-08-07T16:16:57.658Z,3.38
2022-08-07T16:20:06.254Z,2.70
2022-08-07T16:22:36.520Z,2.85
2022-08-07T16:25:52.586Z,2.80
2022-08-07T16:30:05.492Z,2.60
2022-08-07T16:31:50.114Z,2.90
2022-08-07T16:34:48.500Z,3.85
2022-08-07T16:38:04.442Z,3.08
2022-08-07T16:40:30.941Z,2.92
2022-08-07T16:44:06.046Z,3.05
2022-08-07T16:47:07.896Z,3.40
2022-08-07T16:50:26.731Z,3.53
2022-08-07T16:53:15.007Z,3.60
2022-08-07T16:55:53.531Z,2.67
2022-08-07T16:59:14.421Z,2.53
2022-08-07T17:04:24.573Z,2.58
2022-08-07T17:07:02.960Z,4.90
2022-08-07T17:10:07.971Z,2.97
2022-08-07T17:12:47.153Z,4.47
2022-08-07T17:15:20.699Z,5.65
2022-08-07T17:17:47.930Z,3.47
2022-08-07T17:20:41.789Z,3.40
2022-08-07T17:23:32.615Z,2.65
2022-08-07T17:26:30.676Z,3.65
2022-08-07T17:29:08.526Z,2.78
2022-08-07T17:31:44.413Z,4.10
2022-08-07T17:35:40.614Z,3.00
2022-08-07T17:38:09.724Z,2.90
2022-08-07T17:40:58.881Z,3.08
2022-08-07T17:44:02.683Z,3.60
2022-08-07T17:46:53.312Z,4.45
2022-08-07T17:49:51.987Z,5.28
2022-08-07T17:52:39.571Z,2.78
2022-08-07T17:56:00.546Z,3.05
2022-08-07T17:58:13.705Z,6.57
2022-08-07T18:00:59.162Z,3.47
2022-08-07T18:04:04.476Z,3.35
2022-08-07T18:06:42.980Z,3.08
2022-08-07T18:09:48.309Z,2.95
2022-08-07T18:12:32.603Z,2.70
2022-08-07T18:15:12.074Z,2.92
2022-08-07T18:18:46.371Z,3.05
2022-08-07T18:21:07.068Z,2.95
2022-08-07T18:24:02.086Z,3.05
2022-08-07T18:26:40.693Z,2.60
2022-08-07T18:30:05.928Z,2.97
2022-08-07T18:32:39.163Z,3.05
2022-08-07T18:35:51.538Z,2.47
2022-08-07T18:39:01.260Z,3.08
2022-08-07T18:41:49.549Z,4.25
2022-08-07T18:47:47.764Z,6.50
2022-08-07T18:50:47.567Z,6.32
2022-08-07T18:53:57.102Z,4.78
2022-08-07T18:56:40.178Z,3.88
2022-08-07T18:59:47.086Z,3.47
2022-08-07T19:02:55.882Z,3.25
2022-08-07T19:06:03.251Z,4.30
2022-08-07T19:08:58.594Z,6.07
2022-08-07T19:12:04.107Z,3.85
2022-08-07T19:14:59.604Z,4.70
2022-08-07T19:17:59.259Z,3.63
2022-08-07T19:21:09.748Z,3.75
2022-08-07T19:23:58.940Z,3.55
2022-08-07T19:26:29.260Z,3.78
2022-08-07T19:31:04.299Z,3.67
2022-08-07T19:32:25.528Z,3.47
2022-08-07T19:34:55.147Z,4.57
2022-08-07T19:37:23.608Z,2.97
2022-08-07T19:40:05.670Z,3.53
2022-08-07T19:42:42.708Z,2.38
2022-08-07T19:46:06.306Z,3.90
2022-08-07T19:48:18.703Z,2.67
2022-08-07T19:50:53.422Z,2.58
2022-08-07T19:54:35.361Z,2.40
2022-08-07T19:57:51.189Z,2.35
2022-08-07T19:58:58.030Z,2.55
2022-08-07T20:01:52.911Z,2.75
2022-08-07T20:04:32.263Z,3.33
2022-08-07T20:07:09.042Z,2.53
2022-08-07T20:10:37.332Z,3.58
2022-08-07T20:12:37.933Z,4.82
2022-08-07T20:15:15.636Z,2.70
2022-08-07T20:18:01.519Z,2.75
2022-08-07T20:20:31.664Z,2.78
2022-08-07T20:23:11.009Z,2.92
2022-08-07T20:25:53.213Z,2.50
2022-08-07T20:28:29.495Z,3.25
2022-08-07T20:30:59.087Z,5.10
2022-08-07T20:33:37.757Z,3.78
2022-08-07T20:36:07.872Z,3.13
2022-08-07T20:38:59.503Z,3.47
2022-08-07T20:41:34.187Z,3.47
2022-08-07T20:44:12.796Z,3.25
2022-08-07T20:46:43.855Z,3.35
2022-08-07T20:50:00.248Z,3.10
2022-08-07T20:52:05.593Z,3.10
2022-08-07T20:54:45.581Z,3.30
2022-08-07T20:57:24.501Z,3.45
2022-08-07T21:00:07.624Z,3.25
2022-08-07T21:02:59.168Z,3.50
2022-08-07T21:05:56.208Z,4.35
2022-08-07T21:08:46.700Z,3.40
2022-08-07T21:11:21.928Z,4.70
2022-08-07T21:14:29.650Z,3.17
2022-08-07T21:18:01.047Z,3.22
2022-08-07T21:20:05.322Z,3.70
2022-08-07T21:22:44.997Z,3.90
2022-08-07T21:25:29.541Z,4.40
2022-08-07T21:28:13.475Z,3.40
2022-08-07T21:30:49.408Z,5.00
